sensor_id;sensor_type;location;lat;lon;timestamp;P1;durP1;ratioP1;P2;durP2;ratioP2
54171;SDS011;40076;52.354;4.970;2024-03-23T00:55:29;22.17;;;4.10;;
54171;SDS011;40076;52.354;4.970;2024-03-23T00:57:54;26.42;;;4.72;;
54171;SDS011;40076;52.354;4.970;2024-03-23T01:00:19;26.45;;;4.10;;
54171;SDS011;40076;52.354;4.970;2024-03-23T01:02:45;27.48;;;5.40;;
54171;SDS011;40076;52.354;4.970;2024-03-23T01:05:13;27.52;;;6.70;;
54171;SDS011;40076;52.354;4.970;2024-03-23T01:07:38;35.63;;;6.18;;
54171;SDS011;40076;52.354;4.970;2024-03-23T01:10:04;24.23;;;4.38;;
54171;SDS011;40076;52.354;4.970;2024-03-23T01:12:29;23.45;;;5.10;;
54171;SDS011;40076;52.354;4.970;2024-03-23T01:14:55;30.05;;;6.00;;
54171;SDS011;40076;52.354;4.970;2024-03-23T01:17:20;18.30;;;4.00;;
54171;SDS011;40076;52.354;4.970;2024-03-23T01:19:45;33.60;;;4.90;;
54171;SDS011;40076;52.354;4.970;2024-03-23T01:22:13;17.88;;;4.07;;
54171;SDS011;40076;52.354;4.970;2024-03-23T01:24:38;25.13;;;5.05;;
54171;SDS011;40076;52.354;4.970;2024-03-23T01:27:04;19.67;;;3.70;;
54171;SDS011;40076;52.354;4.970;2024-03-23T01:29:29;22.38;;;4.47;;
54171;SDS011;40076;52.354;4.970;2024-03-23T01:31:55;23.35;;;4.82;;
54171;SDS011;40076;52.354;4.970;2024-03-23T01:34:20;28.35;;;5.10;;
54171;SDS011;40076;52.354;4.970;2024-03-23T01:36:49;19.75;;;4.13;;
54171;SDS011;40076;52.354;4.970;2024-03-23T01:39:15;18.33;;;3.65;;
54171;SDS011;40076;52.354;4.970;2024-03-23T01:41:40;26.52;;;4.03;;
54171;SDS011;40076;52.354;4.970;2024-03-23T01:44:07;24.17;;;3.67;;
54171;SDS011;40076;52.354;4.970;2024-03-23T01:46:34;19.08;;;3.65;;
54171;SDS011;40076;52.354;4.970;2024-03-23T01:49:01;21.85;;;3.97;;
54171;SDS011;40076;52.354;4.970;2024-03-23T01:51:27;25.55;;;4.03;;
54171;SDS011;40076;52.354;4.970;2024-03-23T01:53:53;18.15;;;3.35;;
54171;SDS011;40076;52.354;4.970;2024-03-23T01:56:20;17.73;;;3.55;;
54171;SDS011;40076;52.354;4.970;2024-03-23T01:58:45;20.98;;;4.03;;
54171;SDS011;40076;52.354;4.970;2024-03-23T02:01:13;21.60;;;3.55;;
54171;SDS011;40076;52.354;4.970;2024-03-23T02:03:39;24.25;;;3.42;;
54171;SDS011;40076;52.354;4.970;2024-03-23T02:06:04;20.73;;;3.75;;
54171;SDS011;40076;52.354;4.970;2024-03-23T02:08:32;20.73;;;3.53;;
54171;SDS011;40076;52.354;4.970;2024-03-23T02:10:58;16.10;;;3.55;;
54171;SDS011;40076;52.354;4.970;2024-03-23T02:13:24;15.98;;;2.95;;
54171;SDS011;40076;52.354;4.970;2024-03-23T02:15:49;20.20;;;3.33;;
54171;SDS011;40076;52.354;4.970;2024-03-23T02:18:14;12.05;;;2.70;;
54171;SDS011;40076;52.354;4.970;2024-03-23T02:20:40;22.63;;;2.65;;
54171;SDS011;40076;52.354;4.970;2024-03-23T02:23:05;17.40;;;4.00;;
54171;SDS011;40076;52.354;4.970;2024-03-23T02:25:33;21.98;;;2.97;;
54171;SDS011;40076;52.354;4.970;2024-03-23T02:27:59;18.42;;;3.22;;
54171;SDS011;40076;52.354;4.970;2024-03-23T02:30:25;15.25;;;2.90;;
54171;SDS011;40076;52.354;4.970;2024-03-23T02:32:51;17.42;;;3.03;;
54171;SDS011;40076;52.354;4.970;2024-03-23T02:35:16;13.13;;;2.60;;
54171;SDS011;40076;52.354;4.970;2024-03-23T02:37:42;13.00;;;2.50;;
54171;SDS011;40076;52.354;4.970;2024-03-23T02:40:07;20.90;;;3.45;;
54171;SDS011;40076;52.354;4.970;2024-03-23T02:42:33;15.77;;;2.20;;
54171;SDS011;40076;52.354;4.970;2024-03-23T02:44:58;17.95;;;2.75;;
54171;SDS011;40076;52.354;4.970;2024-03-23T02:47:24;17.85;;;2.85;;
54171;SDS011;40076;52.354;4.970;2024-03-23T02:49:50;17.88;;;2.83;;
54171;SDS011;40076;52.354;4.970;2024-03-23T02:52:15;12.82;;;2.22;;
54171;SDS011;40076;52.354;4.970;2024-03-23T02:54:40;18.60;;;3.38;;
54171;SDS011;40076;52.354;4.970;2024-03-23T02:57:09;15.77;;;2.33;;
54171;SDS011;40076;52.354;4.970;2024-03-23T02:59:35;14.88;;;3.65;;
54171;SDS011;40076;52.354;4.970;2024-03-23T03:02:00;16.63;;;2.25;;
54171;SDS011;40076;52.354;4.970;2024-03-23T03:04:26;19.35;;;2.42;;
54171;SDS011;40076;52.354;4.970;2024-03-23T03:06:51;20.63;;;3.72;;
54171;SDS011;40076;52.354;4.970;2024-03-23T03:09:16;14.52;;;2.30;;
54171;SDS011;40076;52.354;4.970;2024-03-23T03:11:42;14.93;;;2.00;;
54171;SDS011;40076;52.354;4.970;2024-03-23T03:14:07;18.25;;;2.85;;
54171;SDS011;40076;52.354;4.970;2024-03-23T03:16:33;20.20;;;3.17;;
54171;SDS011;40076;52.354;4.970;2024-03-23T03:18:58;17.40;;;2.67;;
54171;SDS011;40076;52.354;4.970;2024-03-23T03:21:24;14.45;;;2.78;;
54171;SDS011;40076;52.354;4.970;2024-03-23T03:23:49;18.05;;;2.33;;
54171;SDS011;40076;52.354;4.970;2024-03-23T03:26:15;17.88;;;2.17;;
54171;SDS011;40076;52.354;4.970;2024-03-23T03:28:44;11.95;;;2.22;;
54171;SDS011;40076;52.354;4.970;2024-03-23T03:31:13;12.63;;;2.10;;
54171;SDS011;40076;52.354;4.970;2024-03-23T03:33:42;13.07;;;2.88;;
54171;SDS011;40076;52.354;4.970;2024-03-23T03:36:08;17.70;;;2.40;;
54171;SDS011;40076;52.354;4.970;2024-03-23T03:38:33;13.63;;;1.88;;
54171;SDS011;40076;52.354;4.970;2024-03-23T03:41:05;15.13;;;2.30;;
54171;SDS011;40076;52.354;4.970;2024-03-23T03:43:31;9.38;;;1.83;;
54171;SDS011;40076;52.354;4.970;2024-03-23T03:45:57;14.68;;;2.58;;
54171;SDS011;40076;52.354;4.970;2024-03-23T03:48:24;13.15;;;2.50;;
54171;SDS011;40076;52.354;4.970;2024-03-23T03:50:49;10.65;;;2.67;;
54171;SDS011;40076;52.354;4.970;2024-03-23T03:53:15;18.20;;;2.80;;
54171;SDS011;40076;52.354;4.970;2024-03-23T03:55:41;13.05;;;2.05;;
54171;SDS011;40076;52.354;4.970;2024-03-23T03:58:08;18.38;;;2.78;;
54171;SDS011;40076;52.354;4.970;2024-03-23T04:00:34;14.32;;;2.10;;
54171;SDS011;40076;52.354;4.970;2024-03-23T04:03:00;15.75;;;2.30;;
54171;SDS011;40076;52.354;4.970;2024-03-23T04:05:26;17.63;;;2.70;;
54171;SDS011;40076;52.354;4.970;2024-03-23T04:07:51;19.15;;;2.58;;
54171;SDS011;40076;52.354;4.970;2024-03-23T04:10:16;12.32;;;2.15;;
54171;SDS011;40076;52.354;4.970;2024-03-23T04:12:43;13.65;;;2.05;;
54171;SDS011;40076;52.354;4.970;2024-03-23T04:15:08;15.52;;;2.80;;
54171;SDS011;40076;52.354;4.970;2024-03-23T04:17:34;12.77;;;2.60;;
54171;SDS011;40076;52.354;4.970;2024-03-23T04:20:00;18.05;;;2.38;;
54171;SDS011;40076;52.354;4.970;2024-03-23T04:22:26;13.35;;;2.25;;
54171;SDS011;40076;52.354;4.970;2024-03-23T04:24:53;12.68;;;2.30;;
54171;SDS011;40076;52.354;4.970;2024-03-23T04:27:19;18.83;;;3.78;;
54171;SDS011;40076;52.354;4.970;2024-03-23T04:29:47;15.18;;;2.05;;
54171;SDS011;40076;52.354;4.970;2024-03-23T04:32:14;15.80;;;2.05;;
54171;SDS011;40076;52.354;4.970;2024-03-23T04:34:39;11.13;;;2.00;;
54171;SDS011;40076;52.354;4.970;2024-03-23T04:37:05;12.45;;;2.40;;
54171;SDS011;40076;52.354;4.970;2024-03-23T04:39:30;18.15;;;2.42;;
54171;SDS011;40076;52.354;4.970;2024-03-23T04:41:56;17.65;;;2.35;;
54171;SDS011;40076;52.354;4.970;2024-03-23T04:44:23;12.02;;;1.95;;
54171;SDS011;40076;52.354;4.970;2024-03-23T04:46:49;13.30;;;2.03;;
54171;SDS011;40076;52.354;4.970;2024-03-23T04:49:14;15.38;;;2.47;;
54171;SDS011;40076;52.354;4.970;2024-03-23T04:51:39;13.82;;;3.42;;
54171;SDS011;40076;52.354;4.970;2024-03-23T04:54:06;13.77;;;2.28;;
54171;SDS011;40076;52.354;4.970;2024-03-23T04:56:32;16.02;;;2.72;;
54171;SDS011;40076;52.354;4.970;2024-03-23T04:58:58;12.35;;;2.13;;
54171;SDS011;40076;52.354;4.970;2024-03-23T05:01:26;15.63;;;2.42;;
54171;SDS011;40076;52.354;4.970;2024-03-23T05:03:52;12.23;;;1.83;;
54171;SDS011;40076;52.354;4.970;2024-03-23T05:06:20;9.68;;;2.30;;
54171;SDS011;40076;52.354;4.970;2024-03-23T05:08:46;13.88;;;2.17;;
54171;SDS011;40076;52.354;4.970;2024-03-23T05:11:11;13.68;;;2.00;;
54171;SDS011;40076;52.354;4.970;2024-03-23T05:13:37;12.00;;;2.25;;
54171;SDS011;40076;52.354;4.970;2024-03-23T05:16:02;17.55;;;2.25;;
54171;SDS011;40076;52.354;4.970;2024-03-23T05:18:27;12.32;;;2.13;;
54171;SDS011;40076;52.354;4.970;2024-03-23T05:20:57;18.15;;;4.07;;
54171;SDS011;40076;52.354;4.970;2024-03-23T05:23:24;13.93;;;1.60;;
54171;SDS011;40076;52.354;4.970;2024-03-23T05:25:50;15.05;;;2.30;;
54171;SDS011;40076;52.354;4.970;2024-03-23T05:28:19;19.90;;;3.22;;
54171;SDS011;40076;52.354;4.970;2024-03-23T05:30:49;11.85;;;2.53;;
54171;SDS011;40076;52.354;4.970;2024-03-23T05:33:16;15.32;;;2.45;;
54171;SDS011;40076;52.354;4.970;2024-03-23T05:35:42;12.65;;;1.88;;
54171;SDS011;40076;52.354;4.970;2024-03-23T05:38:08;16.48;;;2.92;;
54171;SDS011;40076;52.354;4.970;2024-03-23T05:40:33;17.77;;;2.97;;
54171;SDS011;40076;52.354;4.970;2024-03-23T05:43:02;15.35;;;2.22;;
54171;SDS011;40076;52.354;4.970;2024-03-23T05:45:28;19.63;;;3.90;;
54171;SDS011;40076;52.354;4.970;2024-03-23T05:47:53;14.00;;;2.92;;
54171;SDS011;40076;52.354;4.970;2024-03-23T05:50:19;14.60;;;2.40;;
54171;SDS011;40076;52.354;4.970;2024-03-23T05:52:44;14.52;;;2.95;;
54171;SDS011;40076;52.354;4.970;2024-03-23T05:55:09;13.80;;;2.75;;
54171;SDS011;40076;52.354;4.970;2024-03-23T05:57:35;15.63;;;2.90;;
54171;SDS011;40076;52.354;4.970;2024-03-23T06:00:00;23.83;;;4.32;;
54171;SDS011;40076;52.354;4.970;2024-03-23T06:02:25;16.48;;;3.25;;
54171;SDS011;40076;52.354;4.970;2024-03-23T06:04:51;16.58;;;2.70;;
54171;SDS011;40076;52.354;4.970;2024-03-23T06:07:16;11.68;;;2.70;;
54171;SDS011;40076;52.354;4.970;2024-03-23T06:09:44;17.30;;;2.83;;
54171;SDS011;40076;52.354;4.970;2024-03-23T06:12:10;16.48;;;2.70;;
54171;SDS011;40076;52.354;4.970;2024-03-23T06:14:35;11.50;;;2.78;;
54171;SDS011;40076;52.354;4.970;2024-03-23T06:17:00;16.80;;;2.53;;
54171;SDS011;40076;52.354;4.970;2024-03-23T06:19:27;10.23;;;2.63;;
54171;SDS011;40076;52.354;4.970;2024-03-23T06:21:53;13.20;;;2.90;;
54171;SDS011;40076;52.354;4.970;2024-03-23T06:24:19;14.73;;;2.83;;
54171;SDS011;40076;52.354;4.970;2024-03-23T06:26:48;16.77;;;3.00;;
54171;SDS011;40076;52.354;4.970;2024-03-23T06:29:13;15.25;;;2.72;;
54171;SDS011;40076;52.354;4.970;2024-03-23T06:31:38;15.77;;;3.17;;
54171;SDS011;40076;52.354;4.970;2024-03-23T06:34:04;12.40;;;3.45;;
54171;SDS011;40076;52.354;4.970;2024-03-23T06:36:29;9.85;;;2.83;;
54171;SDS011;40076;52.354;4.970;2024-03-23T06:38:55;11.35;;;2.90;;
54171;SDS011;40076;52.354;4.970;2024-03-23T06:41:21;16.83;;;3.60;;
54171;SDS011;40076;52.354;4.970;2024-03-23T06:43:49;11.40;;;3.00;;
54171;SDS011;40076;52.354;4.970;2024-03-23T06:46:14;14.40;;;3.55;;
54171;SDS011;40076;52.354;4.970;2024-03-23T06:48:40;17.38;;;4.15;;
54171;SDS011;40076;52.354;4.970;2024-03-23T06:51:05;17.13;;;3.20;;
54171;SDS011;40076;52.354;4.970;2024-03-23T06:53:31;10.77;;;3.28;;
54171;SDS011;40076;52.354;4.970;2024-03-23T06:55:57;14.68;;;2.53;;
54171;SDS011;40076;52.354;4.970;2024-03-23T06:58:23;16.23;;;2.80;;
54171;SDS011;40076;52.354;4.970;2024-03-23T07:00:50;10.38;;;3.38;;
54171;SDS011;40076;52.354;4.970;2024-03-23T07:03:16;16.88;;;2.63;;
54171;SDS011;40076;52.354;4.970;2024-03-23T07:05:42;15.65;;;2.95;;
54171;SDS011;40076;52.354;4.970;2024-03-23T07:08:07;9.77;;;2.63;;
54171;SDS011;40076;52.354;4.970;2024-03-23T07:10:33;10.57;;;2.33;;
54171;SDS011;40076;52.354;4.970;2024-03-23T07:12:59;14.15;;;2.60;;
54171;SDS011;40076;52.354;4.970;2024-03-23T07:15:24;16.48;;;2.70;;
54171;SDS011;40076;52.354;4.970;2024-03-23T07:17:50;11.45;;;3.75;;
54171;SDS011;40076;52.354;4.970;2024-03-23T07:20:15;12.20;;;2.50;;
54171;SDS011;40076;52.354;4.970;2024-03-23T07:22:41;14.57;;;2.40;;
54171;SDS011;40076;52.354;4.970;2024-03-23T07:25:06;15.02;;;2.30;;
54171;SDS011;40076;52.354;4.970;2024-03-23T07:27:37;17.35;;;2.85;;
54171;SDS011;40076;52.354;4.970;2024-03-23T07:30:02;17.90;;;3.00;;
54171;SDS011;40076;52.354;4.970;2024-03-23T07:32:28;13.75;;;2.55;;
54171;SDS011;40076;52.354;4.970;2024-03-23T07:34:53;14.25;;;2.95;;
54171;SDS011;40076;52.354;4.970;2024-03-23T07:37:19;15.20;;;2.15;;
54171;SDS011;40076;52.354;4.970;2024-03-23T07:39:44;9.55;;;2.30;;
54171;SDS011;40076;52.354;4.970;2024-03-23T07:42:09;11.18;;;2.08;;
54171;SDS011;40076;52.354;4.970;2024-03-23T07:44:42;12.15;;;2.05;;
54171;SDS011;40076;52.354;4.970;2024-03-23T07:47:08;11.25;;;2.03;;
54171;SDS011;40076;52.354;4.970;2024-03-23T07:49:33;17.02;;;3.20;;
54171;SDS011;40076;52.354;4.970;2024-03-23T07:51:58;18.42;;;2.78;;
54171;SDS011;40076;52.354;4.970;2024-03-23T07:54:24;10.52;;;1.90;;
54171;SDS011;40076;52.354;4.970;2024-03-23T07:56:49;13.60;;;3.55;;
54171;SDS011;40076;52.354;4.970;2024-03-23T07:59:14;13.65;;;1.90;;
54171;SDS011;40076;52.354;4.970;2024-03-23T08:01:40;12.50;;;2.08;;
54171;SDS011;40076;52.354;4.970;2024-03-23T08:04:07;16.98;;;3.10;;
54171;SDS011;40076;52.354;4.970;2024-03-23T08:06:33;10.98;;;2.00;;
54171;SDS011;40076;52.354;4.970;2024-03-23T08:08:58;17.35;;;3.03;;
54171;SDS011;40076;52.354;4.970;2024-03-23T08:11:30;13.50;;;2.10;;
54171;SDS011;40076;52.354;4.970;2024-03-23T08:13:56;12.48;;;2.28;;
54171;SDS011;40076;52.354;4.970;2024-03-23T08:16:22;13.00;;;2.38;;
54171;SDS011;40076;52.354;4.970;2024-03-23T08:18:48;18.48;;;2.30;;
54171;SDS011;40076;52.354;4.970;2024-03-23T08:21:16;12.70;;;2.13;;
54171;SDS011;40076;52.354;4.970;2024-03-23T08:23:41;20.85;;;2.88;;
54171;SDS011;40076;52.354;4.970;2024-03-23T08:26:07;11.68;;;2.10;;
54171;SDS011;40076;52.354;4.970;2024-03-23T08:28:37;10.75;;;1.70;;
54171;SDS011;40076;52.354;4.970;2024-03-23T08:31:16;14.75;;;2.08;;
54171;SDS011;40076;52.354;4.970;2024-03-23T08:33:42;15.50;;;3.08;;
54171;SDS011;40076;52.354;4.970;2024-03-23T08:36:15;18.55;;;2.35;;
54171;SDS011;40076;52.354;4.970;2024-03-23T08:38:41;12.95;;;2.50;;
54171;SDS011;40076;52.354;4.970;2024-03-23T08:41:14;12.82;;;2.92;;
54171;SDS011;40076;52.354;4.970;2024-03-23T08:43:40;11.93;;;2.10;;
54171;SDS011;40076;52.354;4.970;2024-03-23T08:46:06;14.00;;;2.28;;
54171;SDS011;40076;52.354;4.970;2024-03-23T08:48:46;12.50;;;2.00;;
54171;SDS011;40076;52.354;4.970;2024-03-23T08:51:14;10.27;;;2.10;;
54171;SDS011;40076;52.354;4.970;2024-03-23T08:53:41;9.20;;;1.70;;
54171;SDS011;40076;52.354;4.970;2024-03-23T08:56:06;11.10;;;2.80;;
54171;SDS011;40076;52.354;4.970;2024-03-23T08:58:33;9.85;;;2.15;;
54171;SDS011;40076;52.354;4.970;2024-03-23T09:01:09;10.23;;;1.75;;
54171;SDS011;40076;52.354;4.970;2024-03-23T09:03:35;11.70;;;1.70;;
54171;SDS011;40076;52.354;4.970;2024-03-23T09:08:33;13.10;;;1.95;;
54171;SDS011;40076;52.354;4.970;2024-03-23T09:11:03;14.65;;;2.63;;
54171;SDS011;40076;52.354;4.970;2024-03-23T09:13:30;16.13;;;2.35;;
54171;SDS011;40076;52.354;4.970;2024-03-23T09:15:59;11.75;;;2.15;;
54171;SDS011;40076;52.354;4.970;2024-03-23T09:18:25;12.93;;;2.55;;
54171;SDS011;40076;52.354;4.970;2024-03-23T09:21:09;15.60;;;2.55;;
54171;SDS011;40076;52.354;4.970;2024-03-23T09:23:46;12.88;;;1.92;;
54171;SDS011;40076;52.354;4.970;2024-03-23T09:26:14;15.93;;;3.17;;
54171;SDS011;40076;52.354;4.970;2024-03-23T09:28:44;12.55;;;2.53;;
54171;SDS011;40076;52.354;4.970;2024-03-23T09:31:10;15.63;;;3.13;;
54171;SDS011;40076;52.354;4.970;2024-03-23T09:33:39;17.98;;;3.83;;
54171;SDS011;40076;52.354;4.970;2024-03-23T09:36:05;12.82;;;2.53;;
54171;SDS011;40076;52.354;4.970;2024-03-23T09:38:34;13.57;;;2.42;;
54171;SDS011;40076;52.354;4.970;2024-03-23T09:41:06;15.10;;;2.90;;
54171;SDS011;40076;52.354;4.970;2024-03-23T09:43:38;17.30;;;2.85;;
54171;SDS011;40076;52.354;4.970;2024-03-23T09:46:04;12.38;;;2.05;;
54171;SDS011;40076;52.354;4.970;2024-03-23T09:48:35;11.50;;;1.83;;
54171;SDS011;40076;52.354;4.970;2024-03-23T09:51:11;13.57;;;2.15;;
54171;SDS011;40076;52.354;4.970;2024-03-23T09:53:37;15.10;;;2.17;;
54171;SDS011;40076;52.354;4.970;2024-03-23T09:56:03;10.82;;;1.75;;
54171;SDS011;40076;52.354;4.970;2024-03-23T09:58:29;13.35;;;2.95;;
54171;SDS011;40076;52.354;4.970;2024-03-23T10:00:54;12.90;;;2.17;;
54171;SDS011;40076;52.354;4.970;2024-03-23T10:03:19;15.02;;;2.47;;
54171;SDS011;40076;52.354;4.970;2024-03-23T10:05:45;10.70;;;1.85;;
54171;SDS011;40076;52.354;4.970;2024-03-23T10:10:38;13.45;;;2.70;;
54171;SDS011;40076;52.354;4.970;2024-03-23T10:13:04;14.55;;;2.40;;
54171;SDS011;40076;52.354;4.970;2024-03-23T10:15:29;19.42;;;2.75;;
54171;SDS011;40076;52.354;4.970;2024-03-23T10:17:55;10.40;;;2.33;;
54171;SDS011;40076;52.354;4.970;2024-03-23T10:20:21;13.07;;;2.63;;
54171;SDS011;40076;52.354;4.970;2024-03-23T10:22:50;10.52;;;2.13;;
54171;SDS011;40076;52.354;4.970;2024-03-23T10:25:22;7.45;;;1.73;;
54171;SDS011;40076;52.354;4.970;2024-03-23T10:28:00;14.38;;;2.42;;
54171;SDS011;40076;52.354;4.970;2024-03-23T10:30:26;12.85;;;2.92;;
54171;SDS011;40076;52.354;4.970;2024-03-23T10:33:06;15.27;;;2.03;;
54171;SDS011;40076;52.354;4.970;2024-03-23T10:35:36;15.02;;;2.15;;
54171;SDS011;40076;52.354;4.970;2024-03-23T10:38:05;15.90;;;2.97;;
54171;SDS011;40076;52.354;4.970;2024-03-23T10:40:35;10.55;;;1.92;;
54171;SDS011;40076;52.354;4.970;2024-03-23T10:43:08;17.42;;;2.15;;
54171;SDS011;40076;52.354;4.970;2024-03-23T10:45:34;10.32;;;1.90;;
54171;SDS011;40076;52.354;4.970;2024-03-23T10:47:59;14.35;;;3.10;;
54171;SDS011;40076;52.354;4.970;2024-03-23T10:50:25;15.52;;;2.65;;
54171;SDS011;40076;52.354;4.970;2024-03-23T10:52:54;11.18;;;2.17;;
54171;SDS011;40076;52.354;4.970;2024-03-23T10:55:24;17.52;;;3.17;;
54171;SDS011;40076;52.354;4.970;2024-03-23T10:57:54;14.45;;;3.03;;
54171;SDS011;40076;52.354;4.970;2024-03-23T11:00:20;17.48;;;3.65;;
54171;SDS011;40076;52.354;4.970;2024-03-23T11:02:47;16.15;;;2.10;;
54171;SDS011;40076;52.354;4.970;2024-03-23T11:07:53;14.13;;;2.00;;
54171;SDS011;40076;52.354;4.970;2024-03-23T11:10:26;12.88;;;2.38;;
54171;SDS011;40076;52.354;4.970;2024-03-23T11:12:58;11.80;;;1.92;;
54171;SDS011;40076;52.354;4.970;2024-03-23T11:15:47;14.90;;;3.28;;
54171;SDS011;40076;52.354;4.970;2024-03-23T11:18:13;15.13;;;2.72;;
54171;SDS011;40076;52.354;4.970;2024-03-23T11:20:45;8.77;;;2.33;;
54171;SDS011;40076;52.354;4.970;2024-03-23T11:23:25;10.75;;;2.20;;
54171;SDS011;40076;52.354;4.970;2024-03-23T11:25:52;15.10;;;2.05;;
54171;SDS011;40076;52.354;4.970;2024-03-23T11:28:18;15.43;;;2.60;;
54171;SDS011;40076;52.354;4.970;2024-03-23T11:30:43;14.63;;;2.78;;
54171;SDS011;40076;52.354;4.970;2024-03-23T11:33:09;13.50;;;2.58;;
54171;SDS011;40076;52.354;4.970;2024-03-23T11:35:38;13.88;;;2.72;;
54171;SDS011;40076;52.354;4.970;2024-03-23T11:38:05;15.98;;;2.38;;
54171;SDS011;40076;52.354;4.970;2024-03-23T11:40:32;13.60;;;2.17;;
54171;SDS011;40076;52.354;4.970;2024-03-23T11:42:59;13.50;;;2.00;;
54171;SDS011;40076;52.354;4.970;2024-03-23T11:45:26;14.13;;;2.13;;
54171;SDS011;40076;52.354;4.970;2024-03-23T11:50:33;6.68;;;1.63;;
54171;SDS011;40076;52.354;4.970;2024-03-23T11:53:12;9.80;;;2.05;;
54171;SDS011;40076;52.354;4.970;2024-03-23T11:55:42;15.25;;;2.15;;
54171;SDS011;40076;52.354;4.970;2024-03-23T11:58:17;15.65;;;3.55;;
54171;SDS011;40076;52.354;4.970;2024-03-23T12:00:59;10.90;;;2.05;;
54171;SDS011;40076;52.354;4.970;2024-03-23T12:03:27;14.65;;;2.13;;
54171;SDS011;40076;52.354;4.970;2024-03-23T12:05:56;11.15;;;1.70;;
54171;SDS011;40076;52.354;4.970;2024-03-23T12:08:24;8.88;;;1.50;;
54171;SDS011;40076;52.354;4.970;2024-03-23T12:11:06;6.53;;;1.02;;
54171;SDS011;40076;52.354;4.970;2024-03-23T12:13:32;7.43;;;1.30;;
54171;SDS011;40076;52.354;4.970;2024-03-23T12:18:36;13.60;;;2.03;;
54171;SDS011;40076;52.354;4.970;2024-03-23T12:21:02;7.82;;;1.55;;
54171;SDS011;40076;52.354;4.970;2024-03-23T12:23:27;7.90;;;1.58;;
54171;SDS011;40076;52.354;4.970;2024-03-23T12:25:53;8.73;;;1.45;;
54171;SDS011;40076;52.354;4.970;2024-03-23T12:28:19;8.10;;;1.60;;
54171;SDS011;40076;52.354;4.970;2024-03-23T12:30:51;13.15;;;1.80;;
54171;SDS011;40076;52.354;4.970;2024-03-23T12:35:43;9.30;;;1.88;;
54171;SDS011;40076;52.354;4.970;2024-03-23T12:38:11;14.23;;;2.53;;
54171;SDS011;40076;52.354;4.970;2024-03-23T12:40:38;11.52;;;2.28;;
54171;SDS011;40076;52.354;4.970;2024-03-23T12:43:04;10.82;;;2.10;;
54171;SDS011;40076;52.354;4.970;2024-03-23T12:45:29;12.38;;;1.88;;
54171;SDS011;40076;52.354;4.970;2024-03-23T12:47:54;12.32;;;3.42;;
54171;SDS011;40076;52.354;4.970;2024-03-23T12:50:20;9.40;;;2.03;;
54171;SDS011;40076;52.354;4.970;2024-03-23T12:52:46;10.57;;;1.88;;
54171;SDS011;40076;52.354;4.970;2024-03-23T12:55:11;13.60;;;1.90;;
54171;SDS011;40076;52.354;4.970;2024-03-23T12:57:37;9.60;;;2.17;;
54171;SDS011;40076;52.354;4.970;2024-03-23T13:00:02;13.10;;;2.00;;
54171;SDS011;40076;52.354;4.970;2024-03-23T13:02:29;13.82;;;2.03;;
54171;SDS011;40076;52.354;4.970;2024-03-23T13:04:55;10.55;;;1.83;;
54171;SDS011;40076;52.354;4.970;2024-03-23T13:07:21;15.27;;;1.85;;
54171;SDS011;40076;52.354;4.970;2024-03-23T13:09:49;10.10;;;1.50;;
54171;SDS011;40076;52.354;4.970;2024-03-23T13:12:16;6.78;;;1.33;;
54171;SDS011;40076;52.354;4.970;2024-03-23T13:14:43;8.55;;;1.88;;
54171;SDS011;40076;52.354;4.970;2024-03-23T13:17:27;6.53;;;1.15;;
54171;SDS011;40076;52.354;4.970;2024-03-23T13:19:52;8.35;;;1.92;;
54171;SDS011;40076;52.354;4.970;2024-03-23T13:22:18;12.77;;;2.33;;
54171;SDS011;40076;52.354;4.970;2024-03-23T13:24:44;10.50;;;1.75;;
54171;SDS011;40076;52.354;4.970;2024-03-23T13:27:09;14.43;;;1.92;;
54171;SDS011;40076;52.354;4.970;2024-03-23T13:29:35;8.75;;;2.03;;
54171;SDS011;40076;52.354;4.970;2024-03-23T13:32:02;13.85;;;1.83;;
54171;SDS011;40076;52.354;4.970;2024-03-23T13:34:40;6.35;;;1.52;;
54171;SDS011;40076;52.354;4.970;2024-03-23T13:37:05;12.43;;;1.50;;
54171;SDS011;40076;52.354;4.970;2024-03-23T13:39:32;10.95;;;1.70;;
54171;SDS011;40076;52.354;4.970;2024-03-23T13:41:57;12.57;;;2.03;;
54171;SDS011;40076;52.354;4.970;2024-03-23T13:44:23;8.90;;;1.52;;
54171;SDS011;40076;52.354;4.970;2024-03-23T13:46:49;11.60;;;2.08;;
54171;SDS011;40076;52.354;4.970;2024-03-23T13:49:27;8.23;;;1.60;;
54171;SDS011;40076;52.354;4.970;2024-03-23T13:51:57;11.07;;;1.70;;
54171;SDS011;40076;52.354;4.970;2024-03-23T13:54:23;10.95;;;1.83;;
54171;SDS011;40076;52.354;4.970;2024-03-23T13:56:49;12.60;;;2.35;;
54171;SDS011;40076;52.354;4.970;2024-03-23T13:59:15;8.68;;;1.23;;
54171;SDS011;40076;52.354;4.970;2024-03-23T14:01:42;12.77;;;2.35;;
54171;SDS011;40076;52.354;4.970;2024-03-23T14:04:07;12.35;;;1.73;;
54171;SDS011;40076;52.354;4.970;2024-03-23T14:06:32;8.55;;;1.60;;
54171;SDS011;40076;52.354;4.970;2024-03-23T14:08:58;7.53;;;1.35;;
54171;SDS011;40076;52.354;4.970;2024-03-23T14:11:23;6.68;;;1.75;;
54171;SDS011;40076;52.354;4.970;2024-03-23T14:13:50;7.68;;;1.25;;
54171;SDS011;40076;52.354;4.970;2024-03-23T14:16:16;12.10;;;2.00;;
54171;SDS011;40076;52.354;4.970;2024-03-23T14:18:41;12.02;;;2.05;;
54171;SDS011;40076;52.354;4.970;2024-03-23T14:21:09;8.35;;;1.75;;
54171;SDS011;40076;52.354;4.970;2024-03-23T14:23:43;8.98;;;1.50;;
54171;SDS011;40076;52.354;4.970;2024-03-23T14:26:15;11.50;;;1.80;;
54171;SDS011;40076;52.354;4.970;2024-03-23T14:28:41;9.65;;;1.60;;
54171;SDS011;40076;52.354;4.970;2024-03-23T14:31:09;8.88;;;1.40;;
54171;SDS011;40076;52.354;4.970;2024-03-23T14:33:37;6.05;;;1.23;;
54171;SDS011;40076;52.354;4.970;2024-03-23T14:36:04;7.00;;;1.95;;
54171;SDS011;40076;52.354;4.970;2024-03-23T14:38:29;9.35;;;1.40;;
54171;SDS011;40076;52.354;4.970;2024-03-23T14:41:01;14.45;;;2.20;;
54171;SDS011;40076;52.354;4.970;2024-03-23T14:43:28;10.73;;;1.58;;
54171;SDS011;40076;52.354;4.970;2024-03-23T14:48:36;10.43;;;1.75;;
54171;SDS011;40076;52.354;4.970;2024-03-23T14:51:02;7.25;;;1.40;;
54171;SDS011;40076;52.354;4.970;2024-03-23T14:53:34;8.50;;;1.67;;
54171;SDS011;40076;52.354;4.970;2024-03-23T14:56:01;16.38;;;2.58;;
54171;SDS011;40076;52.354;4.970;2024-03-23T14:58:27;12.80;;;2.28;;
54171;SDS011;40076;52.354;4.970;2024-03-23T15:00:53;9.80;;;1.75;;
54171;SDS011;40076;52.354;4.970;2024-03-23T15:03:25;13.27;;;3.15;;
54171;SDS011;40076;52.354;4.970;2024-03-23T15:05:51;8.65;;;1.70;;
54171;SDS011;40076;52.354;4.970;2024-03-23T15:08:20;13.27;;;1.92;;
54171;SDS011;40076;52.354;4.970;2024-03-23T15:10:45;21.20;;;3.00;;
54171;SDS011;40076;52.354;4.970;2024-03-23T15:13:10;13.45;;;2.35;;
54171;SDS011;40076;52.354;4.970;2024-03-23T15:15:42;8.98;;;1.55;;
54171;SDS011;40076;52.354;4.970;2024-03-23T15:18:13;11.07;;;1.60;;
54171;SDS011;40076;52.354;4.970;2024-03-23T15:20:57;8.15;;;1.40;;
54171;SDS011;40076;52.354;4.970;2024-03-23T15:23:27;7.70;;;1.17;;
54171;SDS011;40076;52.354;4.970;2024-03-23T15:25:56;13.57;;;1.45;;
54171;SDS011;40076;52.354;4.970;2024-03-23T15:28:26;12.63;;;1.57;;
54171;SDS011;40076;52.354;4.970;2024-03-23T15:31:02;7.68;;;1.70;;
54171;SDS011;40076;52.354;4.970;2024-03-23T15:33:28;10.88;;;2.47;;
54171;SDS011;40076;52.354;4.970;2024-03-23T15:35:54;7.18;;;1.40;;
54171;SDS011;40076;52.354;4.970;2024-03-23T15:38:23;6.90;;;1.52;;
54171;SDS011;40076;52.354;4.970;2024-03-23T15:40:52;7.43;;;1.95;;
54171;SDS011;40076;52.354;4.970;2024-03-23T15:43:18;9.27;;;1.70;;
54171;SDS011;40076;52.354;4.970;2024-03-23T15:45:43;9.38;;;1.13;;
54171;SDS011;40076;52.354;4.970;2024-03-23T15:48:09;5.85;;;1.13;;